createdAt,value
2018-11-03T00:00:30.005Z,36.67
2018-11-03T00:02:22.961Z,36.77
2018-11-03T00:03:22.986Z,36.67
2018-11-03T00:05:15.947Z,36.57
2018-11-03T00:06:15.977Z,36.38
2018-11-03T00:08:08.922Z,36.67
2018-11-03T00:09:08.976Z,36.67
2018-11-03T00:11:01.915Z,36.57
2018-11-03T00:12:01.941Z,36.57
2018-11-03T00:13:54.890Z,36.57
2018-11-03T00:14:54.925Z,36.67
2018-11-03T00:16:47.883Z,36.57
2018-11-03T00:17:47.909Z,36.57
2018-11-03T00:19:40.861Z,36.48
2018-11-03T00:20:40.895Z,36.57
2018-11-03T00:22:33.855Z,36.57
2018-11-03T00:23:33.882Z,36.57
2018-11-03T00:25:26.840Z,36.57
2018-11-03T00:26:26.868Z,36.57
2018-11-03T00:28:19.819Z,36.67
2018-11-03T00:29:19.852Z,36.67
2018-11-03T00:31:12.814Z,36.48
2018-11-03T00:32:12.839Z,36.57
2018-11-03T00:34:05.791Z,36.57
2018-11-03T00:35:05.820Z,36.09
2018-11-03T00:36:58.783Z,36.38
2018-11-03T00:37:58.809Z,36.38
2018-11-03T00:39:51.757Z,36.57
2018-11-03T00:40:51.791Z,36.29
2018-11-03T00:42:44.812Z,36.29
2018-11-03T00:43:44.836Z,36.57
2018-11-03T00:45:37.739Z,36.29
2018-11-03T00:46:37.762Z,36.19
2018-11-03T00:48:30.715Z,36.09
2018-11-03T00:49:30.748Z,36.38
2018-11-03T00:51:23.707Z,36.67
2018-11-03T00:52:23.732Z,36.48
2018-11-03T00:54:16.690Z,36.48
2018-11-03T00:55:16.719Z,36.67
2018-11-03T00:57:09.676Z,36.29
2018-11-03T00:58:09.700Z,36.29
2018-11-03T01:00:02.654Z,36.29
2018-11-03T01:01:02.683Z,36.96
2018-11-03T01:02:55.646Z,36.67
2018-11-03T01:03:55.667Z,36.87
2018-11-03T01:05:48.627Z,36.77
2018-11-03T01:06:48.652Z,36.87
2018-11-03T01:08:41.604Z,36.87
2018-11-03T01:09:41.637Z,36.87
2018-11-03T01:11:34.600Z,36.96
2018-11-03T01:12:34.618Z,36.87
2018-11-03T01:14:27.573Z,36.87
2018-11-03T01:15:27.598Z,36.87
2018-11-03T01:17:20.566Z,36.67
2018-11-03T01:18:20.585Z,36.77
2018-11-03T01:20:13.534Z,36.29
2018-11-03T01:21:13.565Z,36.77
2018-11-03T01:23:06.525Z,36.29
2018-11-03T01:24:06.549Z,36.57
2018-11-03T01:25:59.512Z,36.67
2018-11-03T01:26:59.534Z,36.87
2018-11-03T01:28:52.484Z,36.87
2018-11-03T01:29:52.519Z,36.87
2018-11-03T01:31:45.479Z,36.85
2018-11-03T01:32:45.534Z,36.77
2018-11-03T01:34:38.462Z,36.67
2018-11-03T01:35:38.486Z,36.87
2018-11-03T01:37:31.444Z,36.87
2018-11-03T01:38:31.470Z,36.87
2018-11-03T01:40:24.428Z,36.77
2018-11-03T01:41:24.459Z,36.87
2018-11-03T01:43:17.416Z,36.87
2018-11-03T01:44:17.439Z,36.87
2018-11-03T01:46:10.420Z,36.85
2018-11-03T01:47:10.423Z,36.87
2018-11-03T01:49:03.371Z,36.87
2018-11-03T01:50:03.408Z,36.87
2018-11-03T01:51:56.370Z,36.75
2018-11-03T01:52:56.387Z,36.87
2018-11-03T01:54:49.346Z,36.87
2018-11-03T01:55:49.380Z,36.67
2018-11-03T01:57:42.337Z,36.65
2018-11-03T01:58:42.364Z,36.75
2018-11-03T02:00:35.314Z,36.85
2018-11-03T02:01:35.349Z,36.87
2018-11-03T02:03:29.302Z,36.87
2018-11-03T02:04:29.329Z,36.27
2018-11-03T02:06:22.284Z,36.85
2018-11-03T02:07:22.310Z,36.77
2018-11-03T02:09:15.265Z,36.75
2018-11-03T02:10:15.296Z,36.65
2018-11-03T02:12:08.261Z,36.85
2018-11-03T02:13:08.284Z,36.65
2018-11-03T02:15:01.237Z,36.85
2018-11-03T02:16:01.273Z,36.85
2018-11-03T02:17:54.230Z,36.55
2018-11-03T02:18:54.251Z,36.55
2018-11-03T02:20:47.201Z,36.55
2018-11-03T02:21:47.237Z,36.27
2018-11-03T02:23:40.194Z,36.55
2018-11-03T02:24:40.223Z,36.55
2018-11-03T02:26:33.180Z,36.27
2018-11-03T02:27:33.202Z,36.27
2018-11-03T02:29:26.153Z,36.27
2018-11-03T02:30:26.186Z,36.85
2018-11-03T02:32:19.143Z,36.75
2018-11-03T02:33:19.167Z,36.75
2018-11-03T02:35:12.120Z,36.65
2018-11-03T02:36:12.153Z,36.65
2018-11-03T02:38:05.107Z,36.55
2018-11-03T02:39:05.137Z,36.27
2018-11-03T02:40:58.083Z,36.46
2018-11-03T02:41:58.150Z,36.75
2018-11-03T02:43:51.092Z,36.75
2018-11-03T02:44:51.102Z,36.75
2018-11-03T02:46:44.068Z,36.46
2018-11-03T02:47:44.093Z,36.27
2018-11-03T02:49:37.044Z,36.27
2018-11-03T02:50:37.081Z,36.17
2018-11-03T02:52:30.037Z,36.36
2018-11-03T02:53:30.064Z,36.36
2018-11-03T02:55:23.011Z,36.36
2018-11-03T02:56:23.046Z,36.27
2018-11-03T02:58:16.004Z,36.36
2018-11-03T02:59:16.030Z,36.36
2018-11-03T03:01:09.008Z,36.36
2018-11-03T03:02:09.011Z,36.36
2018-11-03T03:04:01.971Z,36.46
2018-11-03T03:05:01.994Z,36.55
2018-11-03T03:06:54.945Z,36.55
2018-11-03T03:07:54.977Z,36.46
2018-11-03T03:09:47.932Z,36.55
2018-11-03T03:10:47.958Z,36.55
2018-11-03T03:12:40.919Z,36.55
2018-11-03T03:13:40.944Z,36.55
2018-11-03T03:15:33.892Z,36.55
2018-11-03T03:16:33.926Z,36.55
2018-11-03T03:18:26.886Z,36.55
2018-11-03T03:19:26.911Z,36.46
2018-11-03T03:21:19.860Z,36.55
2018-11-03T03:22:19.893Z,36.55
2018-11-03T03:24:12.849Z,36.65
2018-11-03T03:25:12.874Z,36.55
2018-11-03T03:27:05.828Z,36.55
2018-11-03T03:28:05.861Z,36.55
2018-11-03T03:29:58.815Z,36.46
2018-11-03T03:30:58.856Z,36.55
2018-11-03T03:32:51.801Z,36.65
2018-11-03T03:33:51.826Z,36.65
2018-11-03T03:35:44.772Z,36.65
2018-11-03T03:36:44.807Z,36.65
2018-11-03T03:38:37.766Z,36.55
2018-11-03T03:39:37.792Z,36.65
2018-11-03T03:41:30.744Z,36.75
2018-11-03T03:42:30.776Z,36.55
2018-11-03T03:44:23.738Z,36.65
2018-11-03T03:45:23.766Z,36.46
2018-11-03T03:47:16.712Z,36.75
2018-11-03T03:48:16.748Z,36.65
2018-11-03T03:50:09.705Z,36.55
2018-11-03T03:51:09.733Z,36.65
2018-11-03T03:53:02.692Z,36.55
2018-11-03T03:54:02.713Z,36.55
2018-11-03T03:55:55.664Z,36.65
2018-11-03T03:56:55.699Z,36.55
2018-11-03T03:58:48.656Z,36.55
2018-11-03T03:59:48.683Z,36.75
2018-11-03T04:01:41.636Z,36.55
2018-11-03T04:02:41.673Z,36.46
2018-11-03T04:04:34.627Z,36.55
2018-11-03T04:05:34.649Z,36.65
2018-11-03T04:07:27.603Z,36.55
2018-11-03T04:08:27.636Z,36.55
2018-11-03T04:10:20.596Z,36.46
2018-11-03T04:11:20.623Z,36.55
2018-11-03T04:13:13.582Z,36.65
2018-11-03T04:14:13.607Z,36.65
2018-11-03T04:16:06.561Z,36.65
2018-11-03T04:17:06.589Z,36.65
2018-11-03T04:18:59.550Z,36.65
2018-11-03T04:19:59.571Z,36.65
2018-11-03T04:21:52.523Z,36.55
2018-11-03T04:22:52.554Z,36.55
2018-11-03T04:24:45.512Z,36.65
2018-11-03T04:25:45.536Z,36.54
2018-11-03T04:27:38.484Z,36.54
2018-11-03T04:28:38.519Z,36.54
2018-11-03T04:30:31.492Z,36.65
2018-11-03T04:31:31.499Z,36.65
2018-11-03T04:33:24.474Z,36.54
2018-11-03T04:34:24.483Z,36.65
2018-11-03T04:36:17.434Z,36.65
2018-11-03T04:37:17.465Z,36.55
2018-11-03T04:39:10.423Z,36.65
2018-11-03T04:40:10.449Z,36.65
2018-11-03T04:42:03.400Z,36.65
2018-11-03T04:43:03.436Z,36.63
2018-11-03T04:44:56.392Z,36.65
2018-11-03T04:45:56.421Z,36.63
2018-11-03T04:47:49.366Z,36.65
2018-11-03T04:48:49.397Z,36.55
2018-11-03T04:50:42.358Z,36.65
2018-11-03T04:51:42.380Z,36.65
2018-11-03T04:53:35.345Z,36.55
2018-11-03T04:54:35.369Z,36.73
2018-11-03T04:56:28.320Z,36.55
2018-11-03T04:57:28.350Z,36.54
2018-11-03T04:59:21.371Z,36.54
2018-11-03T05:00:21.334Z,36.54
2018-11-03T05:02:14.287Z,36.63
2018-11-03T05:03:14.363Z,36.65
2018-11-03T05:05:07.282Z,36.54
2018-11-03T05:06:07.307Z,36.54
2018-11-03T05:08:00.256Z,36.54
2018-11-03T05:09:00.292Z,36.54
2018-11-03T05:10:53.249Z,36.63
2018-11-03T05:11:53.273Z,36.63
2018-11-03T05:13:46.234Z,36.65
2018-11-03T05:14:46.258Z,36.54
2018-11-03T05:16:39.205Z,36.55
2018-11-03T05:17:39.239Z,36.35
2018-11-03T05:19:32.198Z,36.46
2018-11-03T05:20:32.223Z,36.17
2018-11-03T05:22:25.175Z,35.98
2018-11-03T05:23:25.204Z,36.15
2018-11-03T05:25:18.161Z,36.17
2018-11-03T05:26:18.189Z,35.98
2018-11-03T05:28:11.142Z,35.86
2018-11-03T05:29:11.169Z,36.17
2018-11-03T05:31:04.224Z,35.96
2018-11-03T05:32:04.155Z,36.07
2018-11-03T05:33:57.104Z,35.98
2018-11-03T05:34:57.132Z,36.06
2018-11-03T05:36:50.084Z,36.07
2018-11-03T05:37:50.115Z,36.36
2018-11-03T05:39:43.076Z,36.15
2018-11-03T05:40:43.104Z,35.98
2018-11-03T05:42:36.058Z,35.98
2018-11-03T05:43:36.094Z,35.96
2018-11-03T05:45:29.078Z,36.07
2018-11-03T05:46:29.103Z,36.06
2018-11-03T05:48:22.024Z,35.98
2018-11-03T05:49:22.056Z,35.98
2018-11-03T05:51:15.014Z,35.98
2018-11-03T05:52:15.037Z,35.88
2018-11-03T05:54:07.998Z,35.88
2018-11-03T05:55:08.019Z,36.07
2018-11-03T05:57:00.976Z,35.98
2018-11-03T05:58:01.007Z,35.96
2018-11-03T05:59:53.962Z,36.36
2018-11-03T06:00:53.985Z,35.88
2018-11-03T06:02:46.944Z,35.88
2018-11-03T06:03:46.973Z,36.17
2018-11-03T06:05:39.932Z,36.07
2018-11-03T06:06:39.956Z,36.17
2018-11-03T06:08:32.940Z,36.27
2018-11-03T06:09:32.940Z,35.78
2018-11-03T06:11:25.895Z,36.07
2018-11-03T06:12:25.920Z,35.69
2018-11-03T06:14:18.879Z,36.07
2018-11-03T06:15:18.964Z,36.17
2018-11-03T06:17:11.852Z,35.69
2018-11-03T06:18:11.885Z,35.98
2018-11-03T06:20:04.845Z,35.78
2018-11-03T06:21:04.870Z,35.90
2018-11-03T06:22:59.207Z,35.52
2018-11-03T06:23:57.846Z,35.52
2018-11-03T06:25:50.803Z,35.61
2018-11-03T06:26:50.828Z,35.61
2018-11-03T06:28:43.781Z,35.80
2018-11-03T06:29:43.815Z,35.52
2018-11-03T06:31:36.824Z,35.71
2018-11-03T06:32:36.848Z,35.32
2018-11-03T06:34:29.884Z,35.52
2018-11-03T06:35:29.837Z,35.32
2018-11-03T06:37:22.790Z,35.71
2018-11-03T06:38:22.825Z,35.52
2018-11-03T06:40:15.781Z,35.42
2018-11-03T06:41:15.805Z,35.42
2018-11-03T06:43:08.763Z,35.13
2018-11-03T06:44:08.797Z,35.32
2018-11-03T06:46:01.754Z,35.13
2018-11-03T06:47:01.804Z,35.13
2018-11-03T06:48:54.731Z,35.13
2018-11-03T06:49:54.762Z,35.22
2018-11-03T06:51:47.721Z,35.14
2018-11-03T06:52:47.749Z,34.94
2018-11-03T06:54:40.704Z,35.14
2018-11-03T06:55:40.731Z,35.13
2018-11-03T06:57:33.743Z,35.05
2018-11-03T06:58:33.712Z,35.14
2018-11-03T07:00:26.670Z,35.05
2018-11-03T07:01:26.717Z,35.03
2018-11-03T07:03:19.647Z,35.05
2018-11-03T07:04:19.682Z,35.22
2018-11-03T07:06:12.649Z,35.05
2018-11-03T07:07:12.665Z,35.05
2018-11-03T07:09:05.614Z,35.14
2018-11-03T07:10:05.645Z,35.05
2018-11-03T07:11:58.613Z,35.14
2018-11-03T07:12:58.737Z,35.05
2018-11-03T07:14:51.600Z,35.05
2018-11-03T07:15:51.613Z,35.05
2018-11-03T07:17:44.567Z,35.05
2018-11-03T07:18:44.595Z,35.14
2018-11-03T07:20:37.554Z,35.14
2018-11-03T07:21:37.600Z,35.05
2018-11-03T07:23:30.529Z,35.14
2018-11-03T07:24:30.562Z,35.14
2018-11-03T07:26:23.522Z,35.05
2018-11-03T07:27:23.551Z,34.95
2018-11-03T07:29:16.502Z,35.14
2018-11-03T07:30:16.534Z,35.34
2018-11-03T07:32:09.493Z,35.14
2018-11-03T07:33:09.520Z,34.95
2018-11-03T07:35:02.498Z,34.95
2018-11-03T07:36:02.505Z,35.05
2018-11-03T07:37:55.951Z,35.14
2018-11-03T07:38:55.984Z,35.05
2018-11-03T07:40:48.953Z,35.14
2018-11-03T07:41:48.968Z,35.05
2018-11-03T07:43:41.924Z,35.05
2018-11-03T07:44:41.956Z,34.86
2018-11-03T07:46:34.913Z,35.05
2018-11-03T07:47:34.939Z,35.34
2018-11-03T07:49:28.039Z,35.34
2018-11-03T07:50:27.929Z,35.14
2018-11-03T07:52:20.888Z,34.95
2018-11-03T07:53:20.915Z,35.05
2018-11-03T07:55:13.891Z,34.45
2018-11-03T07:56:13.906Z,34.38
2018-11-03T07:58:06.857Z,34.45
2018-11-03T07:59:06.890Z,34.47
2018-11-03T08:01:00.342Z,34.38
2018-11-03T08:02:00.384Z,34.08
2018-11-03T08:03:53.323Z,33.80
2018-11-03T08:04:53.355Z,33.80
2018-11-03T08:06:46.311Z,33.80
2018-11-03T08:07:46.335Z,33.31
2018-11-03T08:09:39.287Z,33.22
2018-11-03T08:10:39.319Z,33.12
2018-11-03T08:12:32.280Z,33.22
2018-11-03T08:13:32.306Z,33.02
2018-11-03T08:15:25.326Z,32.73
2018-11-03T08:16:25.289Z,32.73
2018-11-03T08:18:18.251Z,32.82
2018-11-03T08:19:18.280Z,32.73
2018-11-03T08:21:11.237Z,32.82
2018-11-03T08:22:11.266Z,32.82
2018-11-03T08:24:04.383Z,32.54
2018-11-03T08:25:04.243Z,32.82
2018-11-03T08:26:57.204Z,32.17
2018-11-03T08:27:57.226Z,32.15
2018-11-03T08:29:50.176Z,32.44
2018-11-03T08:30:50.217Z,31.96
2018-11-03T08:32:43.179Z,32.06
2018-11-03T08:33:43.201Z,31.86
2018-11-03T08:35:36.146Z,31.76
2018-11-03T08:36:36.179Z,31.76
2018-11-03T08:38:29.139Z,32.06
2018-11-03T08:39:29.191Z,31.57
2018-11-03T08:41:22.124Z,32.15
2018-11-03T08:42:22.151Z,31.86
2018-11-03T08:44:15.123Z,31.86
2018-11-03T08:45:15.149Z,31.76
2018-11-03T08:47:08.155Z,32.17
2018-11-03T08:48:08.223Z,32.17
2018-11-03T08:50:01.088Z,32.17
2018-11-03T08:51:01.124Z,32.26
2018-11-03T08:52:54.082Z,32.36
2018-11-03T08:53:54.110Z,32.26
2018-11-03T08:55:47.063Z,32.75
2018-11-03T08:56:47.098Z,32.36
2018-11-03T08:58:40.057Z,32.17
2018-11-03T08:59:40.189Z,32.46
2018-11-03T09:01:33.037Z,32.56
2018-11-03T09:02:33.062Z,32.26
2018-11-03T09:04:26.015Z,32.56
2018-11-03T09:05:26.102Z,32.56
2018-11-03T09:07:19.004Z,32.65
2018-11-03T09:08:19.031Z,32.65
2018-11-03T09:10:11.991Z,32.65
2018-11-03T09:11:12.023Z,32.65
2018-11-03T09:13:04.984Z,32.57
2018-11-03T09:14:05.012Z,32.57
2018-11-03T09:15:57.961Z,32.47
2018-11-03T09:16:57.998Z,32.56
2018-11-03T09:18:50.960Z,32.76
2018-11-03T09:19:50.995Z,32.75
2018-11-03T09:21:44.025Z,33.05
2018-11-03T09:22:44.041Z,33.05
2018-11-03T09:24:36.924Z,33.05
2018-11-03T09:25:36.957Z,33.15
2018-11-03T09:27:29.926Z,33.04
2018-11-03T09:28:29.943Z,33.15
2018-11-03T09:30:22.896Z,32.86
2018-11-03T09:31:22.931Z,32.96
2018-11-03T09:33:15.891Z,33.05
2018-11-03T09:34:15.924Z,33.05
2018-11-03T09:36:08.873Z,33.15
2018-11-03T09:37:08.911Z,33.05
2018-11-03T09:39:01.935Z,32.86
2018-11-03T09:40:01.926Z,33.44
2018-11-03T09:41:54.857Z,33.44
2018-11-03T09:42:54.979Z,33.25
2018-11-03T09:44:47.874Z,33.23
2018-11-03T09:45:47.906Z,32.86
2018-11-03T09:47:40.869Z,32.96
2018-11-03T09:48:40.895Z,33.05
2018-11-03T09:50:33.920Z,33.15
2018-11-03T09:51:33.909Z,33.05
2018-11-03T09:53:26.899Z,33.05
2018-11-03T09:54:26.895Z,32.86
2018-11-03T09:56:19.888Z,33.15
2018-11-03T09:57:19.882Z,32.86
2018-11-03T09:59:13.929Z,32.96
2018-11-03T10:00:12.993Z,32.67
2018-11-03T10:02:05.831Z,32.65
2018-11-03T10:03:05.857Z,32.67
2018-11-03T10:04:58.814Z,32.84
2018-11-03T10:05:58.851Z,32.67
2018-11-03T10:07:51.804Z,32.67
2018-11-03T10:08:51.828Z,32.57
2018-11-03T10:10:44.782Z,32.36
2018-11-03T10:11:44.815Z,32.46
2018-11-03T10:13:37.776Z,32.94
2018-11-03T10:14:37.799Z,32.38
2018-11-03T10:16:30.753Z,32.86
2018-11-03T10:17:30.785Z,32.67
2018-11-03T10:19:23.745Z,32.47
2018-11-03T10:20:23.771Z,32.38
2018-11-03T10:22:16.804Z,32.57
2018-11-03T10:23:16.756Z,32.67
2018-11-03T10:25:09.717Z,32.38
2018-11-03T10:26:09.876Z,32.47
2018-11-03T10:28:02.704Z,32.47
2018-11-03T10:29:02.734Z,32.28
2018-11-03T10:30:57.295Z,32.67
2018-11-03T10:31:55.715Z,32.76
2018-11-03T10:33:48.842Z,32.57
2018-11-03T10:34:48.704Z,32.47
2018-11-03T10:36:41.657Z,32.67
2018-11-03T10:37:41.691Z,32.18
2018-11-03T10:39:34.649Z,32.57
2018-11-03T10:40:34.676Z,32.47
2018-11-03T10:42:27.630Z,31.80
2018-11-03T10:43:27.661Z,32.09
2018-11-03T10:45:20.625Z,31.51
2018-11-03T10:46:20.653Z,31.41
2018-11-03T10:48:13.610Z,31.31
2018-11-03T10:49:13.637Z,30.63
2018-11-03T10:51:06.602Z,30.83
2018-11-03T10:52:06.633Z,30.44
2018-11-03T10:53:59.591Z,30.43
2018-11-03T10:54:59.619Z,30.52
2018-11-03T10:56:52.572Z,30.24
2018-11-03T10:57:52.605Z,30.04
2018-11-03T10:59:45.566Z,30.04
2018-11-03T11:00:45.591Z,30.04
2018-11-03T11:02:38.542Z,29.66
2018-11-03T11:03:38.651Z,29.66
2018-11-03T11:05:31.539Z,29.27
2018-11-03T11:06:31.568Z,29.27
2018-11-03T11:08:24.540Z,29.17
2018-11-03T11:09:24.552Z,29.27
2018-11-03T11:11:17.510Z,29.17
2018-11-03T11:12:17.547Z,29.27
2018-11-03T11:14:10.509Z,29.27
2018-11-03T11:15:10.528Z,29.56
2018-11-03T11:17:03.626Z,29.28
2018-11-03T11:18:03.511Z,29.38
2018-11-03T11:19:56.472Z,29.47
2018-11-03T11:20:56.498Z,29.19
2018-11-03T11:22:49.450Z,29.28
2018-11-03T11:23:49.516Z,29.49
2018-11-03T11:25:42.442Z,29.30
2018-11-03T11:26:42.469Z,29.30
2018-11-03T11:28:35.417Z,29.20
2018-11-03T11:29:35.451Z,29.30
2018-11-03T11:31:29.435Z,29.20
2018-11-03T11:32:29.480Z,29.30
2018-11-03T11:34:22.395Z,29.49
2018-11-03T11:35:22.423Z,29.49
2018-11-03T11:37:15.387Z,29.59
2018-11-03T11:38:15.403Z,30.07
2018-11-03T11:40:08.364Z,29.69
2018-11-03T11:41:08.391Z,29.69
2018-11-03T11:43:01.417Z,29.88
2018-11-03T11:44:01.377Z,29.78
2018-11-03T11:45:54.337Z,30.07
2018-11-03T11:46:54.366Z,30.17
2018-11-03T11:48:47.318Z,30.75
2018-11-03T11:49:47.353Z,30.75
2018-11-03T11:51:40.313Z,30.85
2018-11-03T11:52:40.339Z,30.65
2018-11-03T11:54:33.307Z,31.23
2018-11-03T11:55:33.355Z,31.43
2018-11-03T11:57:26.282Z,31.62
2018-11-03T11:58:26.318Z,31.81
2018-11-03T12:00:19.342Z,31.83
2018-11-03T12:01:19.307Z,32.12
2018-11-03T12:03:12.256Z,31.93
2018-11-03T12:04:12.299Z,31.83
2018-11-03T12:06:05.266Z,32.01
2018-11-03T12:07:05.291Z,31.81
2018-11-03T12:08:58.243Z,32.01
2018-11-03T12:09:58.285Z,32.21
2018-11-03T12:11:51.240Z,32.01
2018-11-03T12:12:51.265Z,32.21
2018-11-03T12:14:44.224Z,32.20
2018-11-03T12:15:44.252Z,32.31
2018-11-03T12:17:37.206Z,32.12
2018-11-03T12:18:37.245Z,31.83
2018-11-03T12:20:30.203Z,31.93
2018-11-03T12:21:30.231Z,31.63
2018-11-03T12:23:23.198Z,31.63
2018-11-03T12:24:23.216Z,31.44
2018-11-03T12:26:16.203Z,31.25
2018-11-03T12:27:16.201Z,31.71
2018-11-03T12:29:09.169Z,31.44
2018-11-03T12:30:09.191Z,31.54
2018-11-03T12:32:02.155Z,31.44
2018-11-03T12:33:02.180Z,31.15
2018-11-03T12:34:55.141Z,31.05
2018-11-03T12:35:55.170Z,30.76
2018-11-03T12:37:48.122Z,30.76
2018-11-03T12:38:48.157Z,30.66
2018-11-03T12:40:41.144Z,30.96
2018-11-03T12:41:41.141Z,30.76
2018-11-03T12:43:34.130Z,30.96
2018-11-03T12:44:34.130Z,30.66
2018-11-03T12:46:27.091Z,30.38
2018-11-03T12:47:27.115Z,30.47
2018-11-03T12:49:20.064Z,30.38
2018-11-03T12:50:20.100Z,30.47
2018-11-03T12:52:13.061Z,30.57
2018-11-03T12:53:13.089Z,30.38
2018-11-03T12:55:06.049Z,30.47
2018-11-03T12:56:06.076Z,30.47
2018-11-03T12:57:59.026Z,30.08
2018-11-03T12:58:59.121Z,30.28
2018-11-03T13:00:52.023Z,30.18
2018-11-03T13:01:52.049Z,30.28
2018-11-03T13:03:45.004Z,30.08
2018-11-03T13:04:45.036Z,30.38
2018-11-03T13:06:38.005Z,30.28
2018-11-03T13:07:38.029Z,29.90
2018-11-03T13:09:31.024Z,29.80
2018-11-03T13:10:31.017Z,29.70
2018-11-03T13:12:23.976Z,29.90
2018-11-03T13:13:24.002Z,29.80
2018-11-03T13:15:16.966Z,29.70
2018-11-03T13:16:16.990Z,29.90
2018-11-03T13:18:09.949Z,29.80
2018-11-03T13:19:09.977Z,29.80
2018-11-03T13:21:02.937Z,29.60
2018-11-03T13:22:02.965Z,29.60
2018-11-03T13:23:55.917Z,29.70
2018-11-03T13:24:55.952Z,29.90
2018-11-03T13:26:48.916Z,29.50
2018-11-03T13:27:48.939Z,29.43
2018-11-03T13:29:41.892Z,29.33
2018-11-03T13:30:41.927Z,29.33
2018-11-03T13:32:34.896Z,29.22
2018-11-03T13:33:34.924Z,29.43
2018-11-03T13:35:27.880Z,29.23
2018-11-03T13:36:27.907Z,29.41
2018-11-03T13:38:20.859Z,29.50
2018-11-03T13:39:20.892Z,29.41
2018-11-03T13:41:14.150Z,29.41
2018-11-03T13:42:14.072Z,29.32
2018-11-03T13:44:07.033Z,29.32
2018-11-03T13:45:07.140Z,29.32
2018-11-03T13:47:00.153Z,29.41
2018-11-03T13:48:00.284Z,29.32
2018-11-03T13:49:53.364Z,29.12
2018-11-03T13:50:53.245Z,29.12
2018-11-03T13:52:46.332Z,29.02
2018-11-03T13:53:46.360Z,29.02
2018-11-03T13:55:39.782Z,29.12
2018-11-03T13:56:39.676Z,29.22
2018-11-03T13:58:32.728Z,29.22
2018-11-03T13:59:32.562Z,29.32
2018-11-03T14:01:25.749Z,29.12
2018-11-03T14:02:25.630Z,29.10
2018-11-03T14:04:18.748Z,29.32
2018-11-03T14:05:18.725Z,29.10
2018-11-03T14:07:11.687Z,29.69
2018-11-03T14:08:11.716Z,29.70
2018-11-03T14:10:04.764Z,29.60
2018-11-03T14:11:04.846Z,29.60
2018-11-03T14:12:57.764Z,29.50
2018-11-03T14:13:57.805Z,29.80
2018-11-03T14:15:50.882Z,29.69
2018-11-03T14:16:50.774Z,29.78
2018-11-03T14:18:43.803Z,29.78
2018-11-03T14:19:43.864Z,29.90
2018-11-03T14:21:36.796Z,29.70
2018-11-03T14:22:36.820Z,29.80
2018-11-03T14:24:29.983Z,29.70
2018-11-03T14:25:29.816Z,29.60
2018-11-03T14:27:22.775Z,29.60
2018-11-03T14:28:22.802Z,29.59
2018-11-03T14:30:15.753Z,29.88
2018-11-03T14:31:15.786Z,29.97
2018-11-03T14:33:08.750Z,29.97
2018-11-03T14:34:08.776Z,29.97
2018-11-03T14:36:01.743Z,30.27
2018-11-03T14:37:01.765Z,30.36
2018-11-03T14:38:54.716Z,30.07
2018-11-03T14:39:54.749Z,29.69
2018-11-03T14:41:47.711Z,30.07
2018-11-03T14:42:47.741Z,29.88
2018-11-03T14:44:40.736Z,29.39
2018-11-03T14:45:40.723Z,29.59
2018-11-03T14:47:33.687Z,29.20
2018-11-03T14:48:33.705Z,29.30
2018-11-03T14:50:26.661Z,29.20
2018-11-03T14:51:26.696Z,29.20
2018-11-03T14:53:19.701Z,29.30
2018-11-03T14:54:19.690Z,29.49
2018-11-03T14:56:12.653Z,29.10
2018-11-03T14:57:12.673Z,29.39
2018-11-03T14:59:05.623Z,29.30
2018-11-03T15:00:05.657Z,29.30
2018-11-03T15:01:58.616Z,29.20
2018-11-03T15:02:58.644Z,29.39
2018-11-03T15:04:51.595Z,29.39
2018-11-03T15:05:51.629Z,29.30
2018-11-03T15:07:44.588Z,29.28
2018-11-03T15:08:44.616Z,29.38
2018-11-03T15:10:37.564Z,29.38
2018-11-03T15:11:37.597Z,29.67
2018-11-03T15:13:30.608Z,29.57
2018-11-03T15:14:30.584Z,29.47
2018-11-03T15:16:23.539Z,29.57
2018-11-03T15:17:23.572Z,29.96
2018-11-03T15:19:16.531Z,29.67
2018-11-03T15:20:16.557Z,29.77
2018-11-03T15:22:09.538Z,29.57
2018-11-03T15:23:09.548Z,29.47
2018-11-03T15:25:02.500Z,29.67
2018-11-03T15:26:02.533Z,29.77
2018-11-03T15:27:55.494Z,29.96
2018-11-03T15:28:55.577Z,30.05
2018-11-03T15:30:48.470Z,30.05
2018-11-03T15:31:48.505Z,30.35
2018-11-03T15:33:41.470Z,29.38
2018-11-03T15:34:41.494Z,29.57
2018-11-03T15:36:34.446Z,29.75
2018-11-03T15:37:34.483Z,29.67
2018-11-03T15:39:27.445Z,29.77
2018-11-03T15:40:27.470Z,29.57
2018-11-03T15:42:20.428Z,29.57
2018-11-03T15:43:20.454Z,29.57
2018-11-03T15:45:13.414Z,29.77
2018-11-03T15:46:13.443Z,29.77
2018-11-03T15:48:06.401Z,29.86
2018-11-03T15:49:06.427Z,29.86
2018-11-03T15:50:59.377Z,29.67
2018-11-03T15:51:59.414Z,29.77
2018-11-03T15:53:52.371Z,29.77
2018-11-03T15:54:52.398Z,29.86
2018-11-03T15:56:45.350Z,29.57
2018-11-03T15:57:45.394Z,29.77
2018-11-03T15:59:38.346Z,29.57
2018-11-03T16:00:38.374Z,29.67
2018-11-03T16:02:31.325Z,29.77
2018-11-03T16:03:31.366Z,29.77
2018-11-03T16:05:24.321Z,29.67
2018-11-03T16:06:24.346Z,29.77
2018-11-03T16:08:17.307Z,30.05
2018-11-03T16:09:17.333Z,30.17
2018-11-03T16:11:10.286Z,30.27
2018-11-03T16:12:10.420Z,30.27
2018-11-03T16:14:03.281Z,30.07
2018-11-03T16:15:03.309Z,30.17
2018-11-03T16:16:56.255Z,30.17
2018-11-03T16:17:56.289Z,30.17
2018-11-03T16:19:49.390Z,29.97
2018-11-03T16:20:49.269Z,30.17
2018-11-03T16:22:42.804Z,30.46
2018-11-03T16:23:42.758Z,30.46
2018-11-03T16:25:35.717Z,30.47
2018-11-03T16:26:35.745Z,29.90
2018-11-03T16:28:28.758Z,29.69
2018-11-03T16:29:28.729Z,29.88
2018-11-03T16:31:21.682Z,29.88
2018-11-03T16:32:21.787Z,30.36
2018-11-03T16:34:14.674Z,30.63
2018-11-03T16:35:14.737Z,30.93
2018-11-03T16:37:07.657Z,30.73
2018-11-03T16:38:07.726Z,30.83
2018-11-03T16:40:01.142Z,31.51
2018-11-03T16:41:01.169Z,31.41
2018-11-03T16:42:54.125Z,31.41
2018-11-03T16:43:54.156Z,30.63
2018-11-03T16:45:47.245Z,30.93
2018-11-03T16:46:47.142Z,30.83
2018-11-03T16:48:40.112Z,30.73
2018-11-03T16:49:40.126Z,30.73
2018-11-03T16:51:33.079Z,30.73
2018-11-03T16:52:33.183Z,30.73
2018-11-03T16:54:26.074Z,31.12
2018-11-03T16:55:26.198Z,31.31
2018-11-03T16:57:19.050Z,31.41
2018-11-03T16:58:19.084Z,31.60
2018-11-03T17:00:12.044Z,31.60
2018-11-03T17:01:12.072Z,31.99
2018-11-03T17:03:05.021Z,31.99
2018-11-03T17:04:05.053Z,32.18
2018-11-03T17:05:58.014Z,32.18
2018-11-03T17:06:58.084Z,32.18
2018-11-03T17:08:50.991Z,32.18
2018-11-03T17:09:51.025Z,32.38
2018-11-03T17:11:43.984Z,32.18
2018-11-03T17:12:44.167Z,32.47
2018-11-03T17:14:36.969Z,32.96
2018-11-03T17:15:36.999Z,32.76
2018-11-03T17:17:29.945Z,32.76
2018-11-03T17:18:30.025Z,33.05
2018-11-03T17:20:22.938Z,33.25
2018-11-03T17:21:22.964Z,33.25
2018-11-03T17:23:15.949Z,33.25
2018-11-03T17:24:15.950Z,33.05
2018-11-03T17:26:08.911Z,32.87
2018-11-03T17:27:08.956Z,32.87
2018-11-03T17:29:02.381Z,32.68
2018-11-03T17:30:02.418Z,32.49
2018-11-03T17:31:55.373Z,32.49
2018-11-03T17:32:55.401Z,32.59
2018-11-03T17:34:48.366Z,32.59
2018-11-03T17:35:48.385Z,32.20
2018-11-03T17:37:41.338Z,32.67
2018-11-03T17:38:41.371Z,32.20
2018-11-03T17:40:34.336Z,32.57
2018-11-03T17:41:34.361Z,32.68
2018-11-03T17:43:27.805Z,32.28
2018-11-03T17:44:27.837Z,32.29
2018-11-03T17:46:20.817Z,31.91
2018-11-03T17:47:20.851Z,32.10
2018-11-03T17:49:13.805Z,31.89
2018-11-03T17:50:13.857Z,31.99
2018-11-03T17:52:06.820Z,31.89
2018-11-03T17:53:06.844Z,32.09
2018-11-03T17:54:59.893Z,31.89
2018-11-03T17:55:59.872Z,31.89
2018-11-03T17:57:52.858Z,31.60
2018-11-03T17:58:52.877Z,31.60
2018-11-03T18:00:46.426Z,31.70
2018-11-03T18:01:46.362Z,31.41
2018-11-03T18:03:39.981Z,31.41
2018-11-03T18:04:40.005Z,31.41
2018-11-03T18:06:32.967Z,31.70
2018-11-03T18:07:32.993Z,31.89
2018-11-03T18:09:26.011Z,31.80
2018-11-03T18:10:26.003Z,32.28
2018-11-03T18:12:18.952Z,32.09
2018-11-03T18:13:19.064Z,31.99
2018-11-03T18:15:11.977Z,32.09
2018-11-03T18:16:11.956Z,31.60
2018-11-03T18:18:04.915Z,31.51
2018-11-03T18:19:04.945Z,31.51
2018-11-03T18:20:57.969Z,31.80
2018-11-03T18:21:57.927Z,31.80
2018-11-03T18:23:50.875Z,31.80
2018-11-03T18:24:50.911Z,31.80
2018-11-03T18:26:43.872Z,31.80
2018-11-03T18:27:43.904Z,31.80
2018-11-03T18:29:36.846Z,31.89
2018-11-03T18:30:36.914Z,32.09
2018-11-03T18:32:29.841Z,32.18
2018-11-03T18:33:29.997Z,32.47